Aviation Digital Data Service (ADDS)

Output produced by METARs form (0344 UTC 23 November 2017)
found at http://www.aviationweather.gov/adds/metars/
 
DBBB 230300Z 19004KT 180V320 6000 -TSRA BKN010 FEW020CB 25/23 Q1009 TEMPO 3500 TSRA
TAF AMD DBBB 230200Z 2302/2406 22010KT 9999 SCT012 
     TEMPO 2302/2310 4000 TSRA BKN010 FEW023CB 
     TEMPO 2314/2320 TS BKN012 FEW025CB